Time;durP1;ratioP1;P1;durP2;ratioP2;P2;SDS_P1;SDS_P2;PMS_P1;PMS_P2;Temp;Humidity;BMP_temperature;BMP_pressure;BME280_temperature;BME280_humidity;BME280_pressure;Samples;Min_cycle;Max_cycle;Signal;HPM_P1;HPM_P2
2021/08/23 00:01:07;;;;;;;11.90;2.70;;;;;;;17.87;84.36;100834.60;4925089;60;22486;-81
2021/08/23 00:06:13;;;;;;;5.23;3.63;;;;;;;17.79;84.38;100824.67;4925237;60;21203;-81
2021/08/23 00:11:18;;;;;;;3.03;2.73;;;;;;;17.64;84.36;100812.03;4925003;60;21139;-82
2021/08/23 00:16:24;;;;;;;3.63;2.73;;;;;;;17.57;84.80;100807.27;4924888;60;21248;-81
2021/08/23 00:21:30;;;;;;;5.33;2.67;;;;;;;17.57;84.99;100811.77;4919732;59;21167;-80
2021/08/23 00:26:35;;;;;;;3.20;2.40;;;;;;;17.49;84.88;100808.56;4903547;60;21637;-83
2021/08/23 00:31:41;;;;;;;5.23;3.33;;;;;;;17.43;85.22;100801.16;4905795;60;21577;-81
2021/08/23 00:36:47;;;;;;;6.00;3.43;;;;;;;17.28;85.64;100795.19;4960634;60;21187;-84
2021/08/23 00:41:53;;;;;;;6.27;2.97;;;;;;;17.20;85.98;100782.12;4960618;60;21190;-82
2021/08/23 00:47:01;;;;;;;3.07;2.47;;;;;;;17.07;87.19;100757.62;4960548;60;21339;-83
2021/08/23 00:52:09;;;;;;;6.77;3.07;;;;;;;16.98;87.67;100762.55;4960676;60;21195;-81
2021/08/23 00:57:16;;;;;;;6.77;2.90;;;;;;;16.97;88.45;100778.73;4960758;60;21183;-83
2021/08/23 01:02:42;;;;;;;4.57;3.57;;;;;;;16.98;88.03;100795.11;4961196;60;21211;-83
2021/08/23 01:08:10;;;;;;;3.00;2.50;;;;;;;16.98;88.24;100789.27;4961302;60;21203;-85
2021/08/23 01:13:16;;;;;;;4.17;2.83;;;;;;;16.97;87.96;100783.58;4960291;60;21558;-81
2021/08/23 01:18:23;;;;;;;4.73;3.47;;;;;;;16.95;88.04;100790.09;4961265;60;21132;-81
2021/08/23 01:23:34;;;;;;;5.57;2.83;;;;;;;16.92;87.73;100794.41;4961203;59;21256;-81
2021/08/23 01:28:56;;;;;;;3.97;3.20;;;;;;;16.98;87.79;100808.47;4961449;60;21128;-83
2021/08/23 01:34:03;;;;;;;4.33;3.20;;;;;;;17.02;87.74;100817.38;4930250;60;21178;-83
2021/08/23 01:39:09;;;;;;;2.73;2.53;;;;;;;17.08;87.91;100795.89;4904105;60;21248;-83
2021/08/23 01:44:15;;;;;;;3.40;3.20;;;;;;;17.09;87.62;100784.20;4903997;60;21257;-81
2021/08/23 01:49:20;;;;;;;4.87;2.80;;;;;;;17.04;87.56;100794.02;4903957;60;21199;-84
2021/08/23 01:54:26;;;;;;;4.73;3.43;;;;;;;17.02;87.50;100805.84;4904246;60;21191;-82
2021/08/23 01:59:31;;;;;;;6.80;2.97;;;;;;;17.02;87.53;100803.17;4904006;60;21236;-81
2021/08/23 02:04:37;;;;;;;9.73;3.90;;;;;;;17.04;87.63;100795.84;4903944;60;21445;-81
2021/08/23 02:09:43;;;;;;;3.90;3.50;;;;;;;17.10;87.72;100812.11;4903841;60;21131;-82
2021/08/23 02:14:48;;;;;;;4.50;3.50;;;;;;;17.17;87.72;100786.92;4903944;60;21183;-84
2021/08/23 02:19:54;;;;;;;5.33;3.27;;;;;;;17.15;87.42;100771.54;4903846;60;21218;-80
2021/08/23 02:25:00;;;;;;;4.50;3.37;;;;;;;17.09;87.28;100769.01;4944549;59;21315;-82
2021/08/23 02:30:06;;;;;;;5.67;3.53;;;;;;;17.03;87.72;100773.63;4967183;59;21195;-81
2021/08/23 02:35:12;;;;;;;8.73;3.37;;;;;;;17.00;87.37;100783.77;4967174;59;21184;-84
2021/08/23 02:40:18;;;;;;;3.13;2.87;;;;;;;16.96;87.53;100795.26;4967213;59;21238;-81
2021/08/23 02:45:23;;;;;;;6.87;3.60;;;;;;;16.92;87.95;100773.03;4967041;59;21206;-81
2021/08/23 02:50:29;;;;;;;6.13;4.00;;;;;;;16.81;87.60;100780.27;4967124;59;22194;-81
2021/08/23 02:55:35;;;;;;;4.23;3.83;;;;;;;16.80;87.70;100778.58;4967204;59;21185;-81
2021/08/23 03:00:41;;;;;;;9.73;6.43;;;;;;;16.79;87.75;100774.27;4967027;59;21206;-82
2021/08/23 03:05:47;;;;;;;6.53;5.93;;;;;;;16.77;88.04;100768.72;4967013;59;21212;-83
2021/08/23 03:10:54;;;;;;;9.67;4.87;;;;;;;16.76;88.00;100767.04;4967065;59;22224;-83
2021/08/23 03:16:00;;;;;;;7.57;5.10;;;;;;;16.75;88.02;100778.72;4967037;59;21125;-83
2021/08/23 03:21:06;;;;;;;6.37;4.47;;;;;;;16.70;88.11;100779.66;4967056;59;22179;-83
2021/08/23 03:26:12;;;;;;;6.57;5.27;;;;;;;16.64;88.05;100782.95;4965500;58;21201;-83
2021/08/23 03:31:17;;;;;;;10.07;5.83;;;;;;;16.61;88.71;100779.21;4965133;59;21129;-83
2021/08/23 03:36:24;;;;;;;4.90;4.20;;;;;;;16.54;88.27;100790.98;4885015;59;21169;-83
2021/08/23 03:41:29;;;;;;;4.87;3.37;;;;;;;16.51;88.73;100797.95;4883910;60;21160;-82
2021/08/23 03:46:35;;;;;;;9.53;5.10;;;;;;;16.48;88.72;100804.95;4883899;60;21182;-80
2021/08/23 03:51:41;;;;;;;6.17;5.27;;;;;;;16.45;88.90;100811.92;4883506;60;22142;-81
2021/08/23 03:56:47;;;;;;;5.40;4.53;;;;;;;16.42;88.76;100796.19;4883408;60;21170;-84
2021/08/23 04:01:53;;;;;;;6.70;4.00;;;;;;;16.37;89.09;100795.80;4883438;60;21150;-84
2021/08/23 04:06:59;;;;;;;11.40;4.83;;;;;;;16.30;89.20;100801.40;4883398;60;21173;-81
2021/08/23 04:12:05;;;;;;;6.80;4.57;;;;;;;16.23;89.49;100798.96;4883342;60;22072;-85
2021/08/23 04:17:12;;;;;;;7.97;4.73;;;;;;;16.23;89.87;100794.96;4883473;60;21162;-83
2021/08/23 04:22:17;;;;;;;4.20;3.90;;;;;;;16.23;90.23;100786.46;4883381;60;21194;-84
2021/08/23 04:27:23;;;;;;;11.87;4.53;;;;;;;16.23;90.55;100794.96;4883312;60;21551;-83
2021/08/23 04:32:28;;;;;;;5.50;4.20;;;;;;;16.22;90.38;100803.46;4898958;59;21168;-84
2021/08/23 04:37:34;;;;;;;6.30;4.80;;;;;;;16.21;90.60;100804.94;4934421;59;21218;-81
2021/08/23 04:42:39;;;;;;;4.50;4.10;;;;;;;16.22;90.68;100816.80;4937431;59;51524;-81
2021/08/23 04:47:45;;;;;;;9.30;4.53;;;;;;;16.23;90.32;100817.64;4918006;59;21225;-86
2021/08/23 04:52:51;;;;;;;7.93;4.80;;;;;;;16.21;90.67;100815.61;4903019;59;21181;-85
2021/08/23 04:57:57;;;;;;;4.67;3.80;;;;;;;16.21;91.25;100811.61;4903189;59;21170;-85
2021/08/23 05:03:03;;;;;;;4.70;3.73;;;;;;;16.24;90.72;100812.66;4903019;59;22193;-82
2021/08/23 05:08:09;;;;;;;4.47;3.97;;;;;;;16.27;90.58;100818.55;4910616;59;21232;-83
2021/08/23 05:13:15;;;;;;;4.77;3.40;;;;;;;16.27;90.82;100816.37;4925561;59;21681;-85
2021/08/23 05:18:21;;;;;;;4.00;3.60;;;;;;;16.24;90.55;100826.84;4925366;59;21178;-81
2021/08/23 05:23:27;;;;;;;4.37;3.70;;;;;;;16.21;90.59;100825.80;4902943;59;21474;-84
2021/08/23 05:28:32;;;;;;;2.83;2.63;;;;;;;16.17;90.68;100823.94;4981576;59;21148;-81
2021/08/23 05:33:38;;;;;;;4.33;3.93;;;;;;;16.19;90.75;100823.27;4966880;59;21220;-81
2021/08/23 05:38:45;;;;;;;4.13;3.27;;;;;;;16.16;90.83;100832.09;4986802;59;21705;-81
2021/08/23 05:43:51;;;;;;;5.67;4.00;;;;;;;16.05;90.72;100825.09;4986823;59;21183;-82
2021/08/23 05:48:56;;;;;;;4.87;3.53;;;;;;;16.03;90.86;100828.43;4986872;59;21238;-81
2021/08/23 05:54:02;;;;;;;5.23;3.93;;;;;;;16.06;91.02;100832.11;4986930;59;21237;-81
2021/08/23 05:59:08;;;;;;;3.93;3.57;;;;;;;16.05;90.85;100830.43;4986581;59;21173;-81
2021/08/23 06:04:14;;;;;;;6.53;5.17;;;;;;;16.06;90.90;100835.27;4986656;59;21222;-79
2021/08/23 06:09:21;;;;;;;5.07;3.70;;;;;;;16.03;91.09;100829.77;4986681;59;21224;-82
2021/08/23 06:14:27;;;;;;;4.13;3.83;;;;;;;16.01;91.04;100836.23;4986743;59;21195;-81
2021/08/23 06:19:33;;;;;;;7.90;3.40;;;;;;;15.97;91.81;100845.50;4986497;59;21219;-81
2021/08/23 06:24:39;;;;;;;4.30;3.30;;;;;;;15.95;91.03;100852.31;4985529;59;21232;-80
2021/08/23 06:29:44;;;;;;;4.90;3.43;;;;;;;15.92;91.03;100865.94;4875535;60;21228;-83
2021/08/23 06:34:50;;;;;;;4.67;3.40;;;;;;;15.87;91.64;100865.55;4909278;59;21201;-83
2021/08/23 06:39:56;;;;;;;3.97;3.57;;;;;;;15.87;91.57;100854.03;4919814;59;22184;-81
2021/08/23 06:45:03;;;;;;;3.67;3.03;;;;;;;15.87;91.28;100865.55;4943362;59;21185;-87
2021/08/23 06:50:09;;;;;;;7.17;3.43;;;;;;;15.83;91.49;100859.66;4904562;59;21189;-84
2021/08/23 06:55:15;;;;;;;4.53;2.93;;;;;;;15.84;91.62;100868.50;4904293;59;21194;-88
2021/08/23 07:00:21;;;;;;;5.33;3.27;;;;;;;15.82;91.46;100867.30;4904022;59;21182;-88
2021/08/23 07:05:27;;;;;;;11.77;3.33;;;;;;;15.81;91.43;100870.11;4904263;59;21231;-86
2021/08/23 07:10:33;;;;;;;5.27;3.30;;;;;;;15.77;91.71;100879.38;4904034;59;21596;-83
2021/08/23 07:15:39;;;;;;;5.20;2.93;;;;;;;15.74;91.41;100883.66;4908302;59;21190;-83
2021/08/23 07:20:45;;;;;;;4.63;2.73;;;;;;;15.63;91.63;100880.67;4916407;59;21195;-85
2021/08/23 07:25:50;;;;;;;2.97;2.73;;;;;;;15.52;91.65;100890.13;4949669;58;21234;-86
2021/08/23 07:30:56;;;;;;;3.17;2.87;;;;;;;15.39;91.92;100878.92;4908182;59;21235;-90
2021/08/23 07:36:01;;;;;;;4.47;2.40;;;;;;;15.33;92.23;100884.31;4838207;59;21155;-84
2021/08/23 07:41:07;;;;;;;3.23;2.60;;;;;;;15.34;92.33;100897.15;4826750;60;21198;-86
2021/08/23 07:46:14;;;;;;;5.07;2.93;;;;;;;15.31;92.12;100894.75;4826176;60;21248;-83
2021/08/23 07:51:20;;;;;;;3.23;2.93;;;;;;;15.33;92.57;100902.97;4826033;60;22155;-82
2021/08/23 07:56:29;;;;;;;3.10;2.83;;;;;;;15.34;92.30;100902.48;4826192;60;21190;-85
2021/08/23 08:01:33;;;;;;;3.07;2.53;;;;;;;15.28;92.18;100904.36;4826379;60;21227;-85
2021/08/23 08:06:39;;;;;;;4.30;2.60;;;;;;;15.29;92.28;100902.05;4829971;59;21198;-82
2021/08/23 08:11:45;;;;;;;3.10;2.30;;;;;;;15.25;92.17;100900.66;4919119;59;21126;-82
2021/08/23 08:16:51;;;;;;;5.77;3.33;;;;;;;15.19;92.09;100911.87;4949495;59;21643;-85
2021/08/23 08:21:58;;;;;;;4.17;3.40;;;;;;;15.15;92.26;100909.97;4902425;59;21227;-85
2021/08/23 08:27:04;;;;;;;6.10;4.10;;;;;;;15.17;92.33;100915.16;4908905;58;21189;-82
2021/08/23 08:32:10;;;;;;;3.20;2.90;;;;;;;15.21;92.25;100908.09;4876521;59;21178;-83
2021/08/23 08:37:16;;;;;;;3.43;3.13;;;;;;;15.20;92.00;100921.05;4932056;59;21238;-86
2021/08/23 08:42:22;;;;;;;4.10;2.80;;;;;;;15.20;92.21;100921.05;4931812;59;21122;-83
2021/08/23 08:47:29;;;;;;;6.80;3.03;;;;;;;15.23;92.22;100922.13;4931946;59;21210;-82
2021/08/23 08:52:36;;;;;;;3.87;2.47;;;;;;;15.25;91.98;100932.64;4932046;59;21594;-84
2021/08/23 08:57:44;;;;;;;4.20;2.90;;;;;;;15.20;91.88;100933.05;4931902;59;21177;-82
2021/08/23 09:03:00;;;;;;;4.87;2.43;;;;;;;15.22;92.06;100940.91;4932000;59;21186;-81
2021/08/23 09:08:07;;;;;;;3.67;2.67;;;;;;;15.23;91.99;100945.26;4932173;59;21250;-82
2021/08/23 09:13:14;;;;;;;6.53;2.77;;;;;;;15.17;92.18;100945.31;4932192;59;21131;-85
2021/08/23 09:18:32;;;;;;;4.83;3.23;;;;;;;15.17;91.95;100950.64;4899072;59;21206;-83
2021/08/23 09:23:42;;;;;;;2.67;2.47;;;;;;;15.19;92.12;100955.83;4859322;59;21195;-80
2021/08/23 09:29:03;;;;;;;6.08;3.00;;;;;;;15.20;92.04;100958.36;4908208;59;21557;-88
2021/08/23 09:34:14;;;;;;;7.70;3.17;;;;;;;15.22;91.75;100964.40;4919190;59;21185;-84
2021/08/23 09:39:23;;;;;;;6.13;3.27;;;;;;;15.21;92.17;100964.05;4860272;60;21663;-86
2021/08/23 09:44:36;;;;;;;4.00;3.30;;;;;;;15.23;92.08;100959.42;4860015;61;21193;-82
2021/08/23 09:49:47;;;;;;;6.07;3.00;;;;;;;15.24;91.93;100969.59;4860268;60;21190;-83
2021/08/23 09:55:08;;;;;;;117.23;58.47;;;;;;;15.25;91.83;100972.61;4859955;60;21251;-87
2021/08/23 10:00:14;;;;;;;32.00;15.27;;;;;;;15.16;91.83;100972.09;4859895;61;21548;-82
2021/08/23 10:05:21;;;;;;;26.17;13.20;;;;;;;15.13;91.70;100975.38;4859890;61;21268;-84
2021/08/23 10:10:27;;;;;;;5.27;3.50;;;;;;;15.07;92.06;100973.28;4860022;61;21497;-83
2021/08/23 10:15:33;;;;;;;12.87;6.93;;;;;;;15.07;92.17;100973.28;4859659;61;21213;-82
2021/08/23 10:20:39;;;;;;;5.33;4.07;;;;;;;15.06;92.11;100974.75;4859898;60;21226;-86
2021/08/23 10:25:48;;;;;;;6.60;3.07;;;;;;;15.07;92.67;100972.44;4859771;61;21202;-84
2021/08/23 10:30:58;;;;;;;5.97;3.40;;;;;;;15.08;92.41;100971.45;4835177;60;21671;-83
2021/08/23 10:36:06;;;;;;;3.73;2.20;;;;;;;15.11;92.62;100980.52;4894978;59;21190;-84
2021/08/23 10:41:26;;;;;;;4.60;2.90;;;;;;;15.14;92.61;100985.05;4797666;61;21162;-82
2021/08/23 10:46:38;;;;;;;14.03;4.50;;;;;;;15.13;92.77;100990.52;4797534;62;21194;-81
2021/08/23 10:51:47;;;;;;;2.87;2.57;;;;;;;15.12;93.04;100985.67;4797651;60;21238;-82
2021/08/23 10:57:06;;;;;;;4.17;2.70;;;;;;;15.14;92.75;100990.88;4798715;61;21138;-85
2021/08/23 11:02:35;;;;;;;9.30;3.80;;;;;;;15.09;92.85;100989.13;4799395;60;21568;-82
2021/08/23 11:07:43;;;;;;;5.63;3.57;;;;;;;15.07;92.97;100997.74;4903009;59;21181;-82
2021/08/23 11:12:58;;;;;;;7.37;4.07;;;;;;;15.05;92.94;100999.20;4902737;59;21139;-84
2021/08/23 11:18:13;;;;;;;4.63;3.03;;;;;;;15.09;92.80;100993.13;4902683;59;21265;-84
2021/08/23 11:23:25;;;;;;;4.27;2.80;;;;;;;15.03;92.60;100995.83;4902427;59;21237;-81
2021/08/23 11:28:32;;;;;;;2.52;2.33;;;;;;;15.02;92.63;100997.30;4914789;59;21194;-83
2021/08/23 11:33:40;;;;;;;5.03;2.33;;;;;;;15.01;92.91;101001.78;4986595;59;21185;-84
2021/08/23 11:38:46;;;;;;;5.20;3.00;;;;;;;15.04;92.94;100996.19;4979348;59;21578;-83
2021/08/23 11:43:52;;;;;;;6.03;2.83;;;;;;;15.11;92.96;100991.17;4986841;59;21232;-81
2021/08/23 11:48:57;;;;;;;3.83;2.90;;;;;;;15.13;92.93;100990.52;4954498;59;21118;-82
2021/08/23 11:54:06;;;;;;;3.73;2.37;;;;;;;15.18;93.48;100986.97;4986575;59;21541;-84
2021/08/23 11:59:15;;;;;;;5.17;2.57;;;;;;;15.27;93.75;100987.98;4986429;59;21190;-84
2021/08/23 12:04:25;;;;;;;5.77;2.80;;;;;;;15.29;93.52;100989.50;4967680;59;21201;-85
2021/08/23 12:09:30;;;;;;;3.97;3.50;;;;;;;15.32;93.40;100986.56;4979302;59;21248;-84
2021/08/23 12:14:36;;;;;;;7.10;4.90;;;;;;;15.37;94.04;100994.16;4960821;59;21189;-82
2021/08/23 12:19:41;;;;;;;3.40;3.10;;;;;;;15.42;93.62;100990.11;4961065;59;21222;-81
2021/08/23 12:24:51;;;;;;;5.87;3.03;;;;;;;15.54;93.84;100996.14;4937203;59;21586;-89
2021/08/23 12:29:58;;;;;;;8.37;4.43;;;;;;;15.61;93.97;100985.77;4954362;58;21161;-85
2021/08/23 12:35:04;;;;;;;5.37;4.00;;;;;;;15.67;94.02;100985.23;4964147;59;21992;-81
2021/08/23 12:40:10;;;;;;;3.37;3.07;;;;;;;15.69;93.57;100986.78;4979195;59;22092;-82
2021/08/23 12:45:16;;;;;;;5.17;3.33;;;;;;;15.70;93.46;100995.63;4986320;59;21563;-82
2021/08/23 12:50:22;;;;;;;3.47;2.83;;;;;;;15.67;93.45;100983.89;4986814;58;22063;-83
2021/08/23 12:55:28;;;;;;;4.43;3.20;;;;;;;15.67;93.54;100982.56;4909348;60;21224;-81
2021/08/23 13:00:34;;;;;;;5.30;3.07;;;;;;;15.68;93.59;100986.91;4958267;59;21226;-78
2021/08/23 13:05:40;;;;;;;4.87;3.33;;;;;;;15.65;93.30;100983.19;4936482;60;21127;-84
2021/08/23 13:10:46;;;;;;;3.40;2.90;;;;;;;15.64;93.49;100989.02;4964596;59;22214;-81
2021/08/23 13:15:51;;;;;;;6.03;2.73;;;;;;;15.64;93.40;100983.68;4966269;59;21098;-81
2021/08/23 13:20:57;;;;;;;9.20;2.70;;;;;;;15.64;93.48;100990.34;4962104;59;21094;-81
2021/08/23 13:26:07;;;;;;;7.00;4.27;;;;;;;15.68;93.21;100995.76;4962077;59;21207;-80
2021/08/23 13:31:12;;;;;;;5.43;3.40;;;;;;;15.63;93.33;100985.15;4948817;59;21158;-84
2021/08/23 13:36:18;;;;;;;5.23;3.47;;;;;;;15.65;93.21;100992.52;4921382;59;21194;-84
2021/08/23 13:41:23;;;;;;;6.23;3.57;;;;;;;15.67;93.22;100993.23;4926910;59;21266;-84
2021/08/23 13:46:29;;;;;;;20.97;4.30;;;;;;;15.67;93.14;100994.07;4921717;59;21442;-84
2021/08/23 13:51:35;;;;;;;3.77;2.60;;;;;;;15.68;93.01;100999.75;4926106;59;21253;-82
2021/08/23 13:56:41;;;;;;;4.73;3.47;;;;;;;15.64;93.01;101001.50;4926858;59;21209;-80
2021/08/23 14:01:47;;;;;;;4.53;3.43;;;;;;;15.63;93.10;101003.81;4919526;59;21721;-81
2021/08/23 14:06:53;;;;;;;10.73;5.80;;;;;;;15.62;93.12;101000.30;4925747;59;21819;-85
2021/08/23 14:11:59;;;;;;;7.00;5.00;;;;;;;15.65;93.22;101004.52;4924360;59;21265;-83
2021/08/23 14:17:08;;;;;;;6.63;4.03;;;;;;;15.67;93.26;101006.56;4917861;59;21182;-83
2021/08/23 14:22:13;;;;;;;8.27;4.23;;;;;;;15.68;93.17;101014.42;4920694;59;21187;-84
2021/08/23 14:27:18;;;;;;;8.03;4.20;;;;;;;15.71;93.14;101015.48;4913007;59;21222;-83
2021/08/23 14:32:24;;;;;;;5.23;4.07;;;;;;;15.72;93.00;101013.66;4886613;58;21192;-83
2021/08/23 14:37:30;;;;;;;6.37;3.67;;;;;;;15.75;93.06;101017.35;4851954;59;21458;-80
2021/08/23 14:42:36;;;;;;;5.10;4.00;;;;;;;15.75;93.13;101020.86;4859035;59;21190;-81
2021/08/23 14:47:41;;;;;;;16.60;9.30;;;;;;;15.74;92.92;101020.52;4870641;59;21181;-84
2021/08/23 14:52:47;;;;;;;8.60;5.70;;;;;;;15.72;92.94;101023.84;4879068;59;21205;-80
2021/08/23 14:57:53;;;;;;;7.17;4.23;;;;;;;15.74;92.79;101022.34;4932149;59;21201;-84
2021/08/23 15:02:59;;;;;;;12.53;3.93;;;;;;;15.74;92.87;101029.84;4932244;59;21170;-81
2021/08/23 15:08:05;;;;;;;9.77;5.40;;;;;;;15.79;92.90;101034.77;4932155;59;21174;-84
2021/08/23 15:13:10;;;;;;;7.00;4.57;;;;;;;15.79;92.92;101037.44;4932146;59;21182;-82
2021/08/23 15:18:16;;;;;;;10.43;5.17;;;;;;;15.82;93.04;101038.50;4932286;59;21247;-83
2021/08/23 15:23:23;;;;;;;14.47;4.93;;;;;;;15.85;92.89;101038.72;4893434;59;21222;-82
2021/08/23 15:28:29;;;;;;;10.37;5.30;;;;;;;15.90;92.86;101040.45;4885255;59;21253;-83
2021/08/23 15:33:36;;;;;;;8.57;4.90;;;;;;;15.88;92.72;101035.28;4929977;58;21643;-83
2021/08/23 15:38:42;;;;;;;13.17;7.17;;;;;;;15.91;92.73;101032.80;4946641;58;21210;-84
2021/08/23 15:43:47;;;;;;;7.37;3.87;;;;;;;15.92;92.97;101034.00;4948408;59;21118;-81
2021/08/23 15:48:55;;;;;;;11.53;4.60;;;;;;;15.94;92.87;101029.36;4948841;59;21213;-86
2021/08/23 15:54:01;;;;;;;12.30;4.83;;;;;;;15.99;92.83;101024.95;4942066;59;21175;-83
2021/08/23 15:59:06;;;;;;;8.63;5.00;;;;;;;16.03;92.87;101025.87;4934563;59;21596;-84
2021/08/23 16:04:13;;;;;;;7.07;4.63;;;;;;;16.06;92.75;101032.72;4923848;60;21217;-83
2021/08/23 16:09:18;;;;;;;8.30;4.50;;;;;;;16.05;92.80;101027.03;4954714;58;21181;-81
2021/08/23 16:14:25;;;;;;;10.30;3.73;;;;;;;16.01;92.49;101036.33;4937516;59;21223;-81
2021/08/23 16:19:31;;;;;;;11.57;5.93;;;;;;;16.02;92.65;101038.02;4973273;59;21227;-83
2021/08/23 16:24:37;;;;;;;11.37;4.47;;;;;;;16.00;92.53;101035.48;4974332;59;21180;-82
2021/08/23 16:29:43;;;;;;;12.40;5.20;;;;;;;16.00;92.29;101046.64;4933004;59;21663;-85
2021/08/23 16:34:49;;;;;;;8.83;4.40;;;;;;;15.99;92.49;101051.63;4871775;58;22279;-85
2021/08/23 16:39:54;;;;;;;18.73;5.40;;;;;;;16.00;92.34;101055.49;4844385;60;21225;-81
2021/08/23 16:45:00;;;;;;;7.03;4.60;;;;;;;16.02;92.18;101056.20;4844134;60;21196;-83
2021/08/23 16:50:07;;;;;;;15.97;7.43;;;;;;;16.00;92.12;101054.65;4844243;60;21129;-85
2021/08/23 16:55:14;;;;;;;7.53;4.70;;;;;;;15.97;92.26;101061.59;4844394;60;21176;-81
2021/08/23 17:00:20;;;;;;;15.67;8.20;;;;;;;15.96;92.08;101068.75;4844230;60;21217;-81
2021/08/23 17:05:26;;;;;;;8.17;5.63;;;;;;;15.92;91.97;101074.50;4844193;60;21583;-82
2021/08/23 17:10:32;;;;;;;6.93;3.93;;;;;;;15.93;92.00;101080.19;4844207;60;22138;-82
2021/08/23 17:15:38;;;;;;;6.03;3.63;;;;;;;15.94;92.00;101081.39;4844077;60;22165;-84
2021/08/23 17:20:44;;;;;;;7.10;4.07;;;;;;;15.96;92.01;101082.09;4844195;60;21188;-82
2021/08/23 17:25:50;;;;;;;9.93;6.07;;;;;;;15.98;91.72;101090.80;4844099;60;21186;-83
2021/08/23 17:30:55;;;;;;;6.50;4.10;;;;;;;15.96;91.69;101091.44;4844145;60;21184;-85
2021/08/23 17:36:01;;;;;;;3.63;3.23;;;;;;;15.99;91.41;101104.98;4960014;59;21177;-81
2021/08/23 17:41:07;;;;;;;7.63;4.30;;;;;;;15.99;91.24;101099.16;4987385;59;21184;-80
2021/08/23 17:46:13;;;;;;;4.87;3.60;;;;;;;15.95;90.93;101097.75;4987114;59;21118;-84
2021/08/23 17:51:19;;;;;;;4.90;3.80;;;;;;;15.94;90.98;101105.89;4987051;59;21639;-83
2021/08/23 17:56:25;;;;;;;4.67;3.60;;;;;;;15.94;90.90;101113.89;4987043;59;21194;-82
2021/08/23 18:01:31;;;;;;;14.80;8.70;;;;;;;15.90;90.58;101118.66;4986979;59;21193;-81
2021/08/23 18:06:37;;;;;;;10.73;7.07;;;;;;;15.90;90.41;101137.81;4986528;59;21283;-82
2021/08/23 18:11:43;;;;;;;6.03;3.83;;;;;;;15.91;90.13;101149.69;4986997;59;21124;-82
2021/08/23 18:16:48;;;;;;;14.43;6.57;;;;;;;15.88;90.08;101157.14;4987099;59;21185;-83
2021/08/23 18:21:55;;;;;;;4.60;4.00;;;;;;;15.78;90.31;101164.62;4986777;59;21572;-80
2021/08/23 18:27:01;;;;;;;3.90;2.57;;;;;;;15.71;90.36;101171.98;4986935;59;21122;-84
2021/08/23 18:32:07;;;;;;;10.27;2.30;;;;;;;15.58;90.68;101177.56;4970568;59;21162;-83
2021/08/23 18:37:13;;;;;;;4.77;3.30;;;;;;;15.49;90.69;101179.66;4979639;59;21217;-81
2021/08/23 18:42:19;;;;;;;5.93;3.70;;;;;;;15.42;90.94;101197.18;4986880;59;21552;-85
2021/08/23 18:47:26;;;;;;;9.63;3.60;;;;;;;15.39;91.32;101200.11;4986898;59;21177;-79
2021/08/23 18:52:32;;;;;;;15.13;3.13;;;;;;;15.34;91.14;101203.16;4986665;59;22105;-81
2021/08/23 18:57:40;;;;;;;22.00;11.33;;;;;;;15.29;91.08;101199.19;4986849;59;21140;-86
2021/08/23 19:02:45;;;;;;;4.77;3.30;;;;;;;15.31;91.27;101205.23;4982011;59;21272;-81
2021/08/23 19:07:51;;;;;;;7.20;2.80;;;;;;;15.31;91.27;101217.23;4986822;59;21764;-84
2021/08/23 19:12:57;;;;;;;4.53;3.27;;;;;;;15.28;91.08;101226.33;4986903;59;21240;-84
2021/08/23 19:18:04;;;;;;;5.17;3.03;;;;;;;15.28;91.42;101228.15;4986861;59;21192;-89
2021/08/23 19:23:10;;;;;;;49.70;28.83;;;;;;;15.29;91.35;101237.84;4987147;59;21225;-84
2021/08/23 19:28:16;;;;;;;8.53;4.47;;;;;;;15.30;91.66;101231.53;4987450;59;21218;-88
2021/08/23 19:33:22;;;;;;;13.37;6.07;;;;;;;15.36;91.69;101230.53;4987287;59;21134;-90
2021/08/23 19:38:28;;;;;;;9.23;4.47;;;;;;;15.33;91.50;101221.45;4906724;59;21221;-86
2021/08/23 19:43:34;;;;;;;10.17;4.30;;;;;;;15.35;91.63;101220.84;4903413;59;21510;-84
2021/08/23 19:48:40;;;;;;;6.90;3.47;;;;;;;15.39;91.75;101221.43;4903676;59;21263;-89
2021/08/23 19:53:46;;;;;;;7.90;4.13;;;;;;;15.45;91.71;101216.87;4903349;59;21170;-87
2021/08/23 19:58:51;;;;;;;6.70;3.80;;;;;;;15.46;91.79;101223.41;4903235;59;21158;-86
2021/08/23 20:03:59;;;;;;;7.97;3.27;;;;;;;15.43;91.15;101234.34;4903246;59;21576;-87
2021/08/23 20:09:05;;;;;;;11.27;4.23;;;;;;;15.45;91.30;101227.54;4903271;59;21178;-85
2021/08/23 20:14:13;;;;;;;3.47;3.00;;;;;;;15.46;91.25;101231.41;4903052;59;22080;-86
2021/08/23 20:19:20;;;;;;;4.77;3.10;;;;;;;15.45;91.14;101232.39;4903241;59;21186;-88
2021/08/23 20:24:26;;;;;;;4.73;2.70;;;;;;;15.44;90.90;101236.52;4927626;59;21498;-84
2021/08/23 20:29:31;;;;;;;8.13;2.97;;;;;;;15.46;90.89;101234.08;4929570;59;21169;-84
2021/08/23 20:34:37;;;;;;;4.17;2.50;;;;;;;15.46;90.30;101239.41;4918940;59;21197;-86
2021/08/23 20:39:44;;;;;;;9.67;3.03;;;;;;;15.39;89.94;101249.41;4920328;59;21123;-83
2021/08/23 20:44:53;;;;;;;6.50;3.07;;;;;;;15.36;89.78;101242.52;4916437;59;21091;-86
2021/08/23 20:49:59;;;;;;;11.00;2.70;;;;;;;15.34;89.60;101248.47;4924451;59;21183;-84
2021/08/23 20:55:05;;;;;;;3.83;1.97;;;;;;;15.31;89.47;101251.88;4902428;59;21192;-90
2021/08/23 21:00:14;;;;;;;7.23;2.30;;;;;;;15.28;89.25;101246.81;4920171;59;21127;-85
2021/08/23 21:05:20;;;;;;;3.83;2.10;;;;;;;15.27;89.10;101240.66;4926256;59;21287;-83
2021/08/23 21:10:26;;;;;;;2.77;1.37;;;;;;;15.27;89.21;101243.33;4928340;59;21126;-84
2021/08/23 21:15:31;;;;;;;2.53;2.33;;;;;;;15.29;89.15;101252.50;4953877;59;21225;-89
2021/08/23 21:20:37;;;;;;;8.20;2.00;;;;;;;15.25;89.34;101246.61;4827438;60;21241;-86
2021/08/23 21:25:43;;;;;;;3.57;1.50;;;;;;;15.27;89.10;101241.16;4804451;60;21182;-82
2021/08/23 21:30:49;;;;;;;2.53;1.60;;;;;;;15.26;89.18;101246.97;4953690;59;21212;-84
2021/08/23 21:35:55;;;;;;;3.83;1.80;;;;;;;15.24;89.15;101249.40;4841517;59;21233;-85
2021/08/23 21:41:02;;;;;;;2.50;1.40;;;;;;;15.22;89.33;101255.34;4827188;60;21155;-85
2021/08/23 21:46:08;;;;;;;1.07;1.00;;;;;;;15.23;89.25;101255.22;4889785;59;21209;-84
2021/08/23 21:51:14;;;;;;;6.13;1.47;;;;;;;15.24;89.32;101250.73;4939047;59;21721;-88
2021/08/23 21:56:19;;;;;;;4.77;1.83;;;;;;;15.23;89.30;101250.37;4954202;59;21229;-85
2021/08/23 22:01:25;;;;;;;6.53;1.70;;;;;;;15.18;89.32;101256.57;4954119;59;21197;-86
2021/08/23 22:06:31;;;;;;;6.03;1.67;;;;;;;15.17;89.47;101266.38;4953697;59;21209;-86
2021/08/23 22:11:37;;;;;;;9.13;1.73;;;;;;;15.18;89.56;101265.90;4953571;59;21130;-86
2021/08/23 22:16:43;;;;;;;5.27;1.70;;;;;;;15.20;89.48;101266.62;4953439;59;21198;-88
2021/08/23 22:21:48;;;;;;;3.63;1.57;;;;;;;15.14;89.39;101259.98;4953398;59;21158;-87
2021/08/23 22:26:54;;;;;;;4.80;1.50;;;;;;;15.13;89.44;101257.80;4952902;59;21587;-86
2021/08/23 22:32:00;;;;;;;5.97;1.63;;;;;;;15.17;89.60;101260.21;4916848;59;21194;-81
2021/08/23 22:37:06;;;;;;;1.43;1.30;;;;;;;15.17;89.55;101261.05;4935677;59;21540;-79
2021/08/23 22:42:12;;;;;;;2.80;1.67;;;;;;;15.12;89.37;101257.44;4931834;59;21186;-82
2021/08/23 22:47:17;;;;;;;5.03;2.00;;;;;;;15.10;89.45;101261.23;4886812;59;21247;-79
2021/08/23 22:52:24;;;;;;;5.10;2.40;;;;;;;15.06;89.16;101261.98;4919865;59;21178;-88
2021/08/23 22:57:29;;;;;;;3.50;1.83;;;;;;;15.04;89.42;101267.07;4932217;59;21227;-81
2021/08/23 23:02:35;;;;;;;6.13;2.03;;;;;;;15.02;89.49;101259.20;4932295;59;21228;-80
2021/08/23 23:07:41;;;;;;;3.90;1.80;;;;;;;15.04;89.59;101255.08;4932529;59;21311;-81
2021/08/23 23:12:47;;;;;;;4.10;1.77;;;;;;;15.00;89.53;101263.81;4932427;59;21181;-89
2021/08/23 23:17:53;;;;;;;2.13;1.43;;;;;;;14.98;89.42;101259.09;4932411;59;21572;-84
2021/08/23 23:22:59;;;;;;;11.23;1.60;;;;;;;14.95;89.42;101259.87;4932314;59;21214;-80
2021/08/23 23:28:06;;;;;;;3.87;2.10;;;;;;;14.94;89.45;101263.50;4932245;59;21231;-84
2021/08/23 23:33:12;;;;;;;4.77;1.97;;;;;;;14.88;89.30;101260.86;4902280;59;22182;-85
2021/08/23 23:38:17;;;;;;;4.87;1.70;;;;;;;14.84;89.46;101255.91;4880102;59;21174;-85
2021/08/23 23:43:23;;;;;;;5.23;2.53;;;;;;;14.81;89.38;101245.05;4932772;59;21134;-85